Lisle, New York
Current Conditions -  °F | °C
As of 10:53 PM on Saturday 24 Jan 2015 (Local Time) from KBGM Reporting Station
Overcast Overcast  
Wind Chill: 15°   Ceiling: 1300
Heat Index: 27°   Visibility: 10mi
Dew Point: 23°   Wind: 15mph
Humidity: 85%   Direction: 280°W
Pressure: 29.42"   Gusts: 21mph
Location:  42.35°N, 76°W
Report Text: KBGM 250353Z 28013G18KT 10SM OVC013 M03/M05 A2942 RMK AO2 SLP979 T10281050
Loading
Personal Weather Stations






























Interactive Weather Map New forecast layout! Learn more

10-Day Weather Forecast

Advertisements
Track Severe Weather on mobile